Time;durP1;ratioP1;P1;durP2;ratioP2;P2;SDS_P1;SDS_P2;PMS_P1;PMS_P2;Temp;Humidity;BMP_temperature;BMP_pressure;BME280_temperature;BME280_humidity;BME280_pressure;Samples;Min_cycle;Max_cycle;Signal;HPM_P1;HPM_P2
2021/12/20 00:01:57;;;;;;;36.42;6.13;;;4.30;99.90;;;;;;5041092;28;20036;-71
2021/12/20 00:04:23;;;;;;;37.70;6.22;;;4.30;99.90;;;;;;5037882;28;20017;-70
2021/12/20 00:06:48;;;;;;;33.55;5.28;;;4.30;99.90;;;;;;5055749;28;20021;-72
2021/12/20 00:09:15;;;;;;;33.92;5.93;;;4.30;99.90;;;;;;5055629;28;20470;-71
2021/12/20 00:11:40;;;;;;;33.10;6.10;;;4.20;99.90;;;;;;5055799;28;20334;-73
2021/12/20 00:14:06;;;;;;;31.90;6.38;;;4.20;99.90;;;;;;5038076;28;20104;-71
2021/12/20 00:16:32;;;;;;;37.80;6.57;;;4.20;99.90;;;;;;5056696;28;20025;-71
2021/12/20 00:18:57;;;;;;;26.20;6.38;;;4.20;99.90;;;;;;5056379;28;20033;-73
2021/12/20 00:21:23;;;;;;;36.35;5.95;;;4.20;99.90;;;;;;5038418;28;20028;-72
2021/12/20 00:23:48;;;;;;;27.67;5.28;;;4.10;99.90;;;;;;5037854;28;20024;-72
2021/12/20 00:26:14;;;;;;;25.83;5.63;;;4.10;99.90;;;;;;5037312;28;20025;-73
2021/12/20 00:28:40;;;;;;;32.20;6.35;;;4.10;99.90;;;;;;5056029;28;20029;-72
2021/12/20 00:31:06;;;;;;;27.63;5.13;;;4.00;99.90;;;;;;5056071;28;20087;-72
2021/12/20 00:33:33;;;;;;;41.38;5.38;;;4.10;99.90;;;;;;5056371;28;20097;-72
2021/12/20 00:36:00;;;;;;;23.02;4.70;;;4.00;99.90;;;;;;5056237;28;20017;-72
2021/12/20 00:41:10;;;;;;;33.80;5.47;;;4.00;99.90;;;;;;5055583;28;20036;-72
2021/12/20 00:43:35;;;;;;;30.88;5.13;;;4.00;99.90;;;;;;5070418;23;20032;-68
2021/12/20 00:46:01;;;;;;;29.83;5.43;;;3.90;99.90;;;;;;5054987;28;20029;-69
2021/12/20 00:48:26;;;;;;;34.70;7.05;;;3.90;99.90;;;;;;5054493;28;20045;-69
2021/12/20 00:50:52;;;;;;;28.17;5.80;;;3.90;99.90;;;;;;5054771;28;20028;-69
2021/12/20 00:53:18;;;;;;;29.25;5.63;;;3.80;99.90;;;;;;5054143;28;20020;-69
2021/12/20 00:55:44;;;;;;;23.85;4.28;;;3.80;99.90;;;;;;5054528;28;20425;-70
2021/12/20 00:58:09;;;;;;;23.30;5.72;;;3.80;99.90;;;;;;5054852;28;20074;-70
2021/12/20 01:00:42;;;;;;;31.67;5.82;;;3.80;99.90;;;;;;5054179;28;20036;-69
2021/12/20 01:03:09;;;;;;;29.25;5.28;;;3.80;99.90;;;;;;5035870;28;20040;-69
2021/12/20 01:05:38;;;;;;;28.38;5.70;;;3.80;99.90;;;;;;5053599;28;20112;-71
2021/12/20 01:08:05;;;;;;;28.25;5.75;;;3.80;99.90;;;;;;5053505;28;20045;-70
2021/12/20 01:10:32;;;;;;;32.45;5.97;;;3.80;99.90;;;;;;5053421;28;20095;-69
2021/12/20 01:13:01;;;;;;;31.40;5.18;;;3.70;99.90;;;;;;5053222;28;20017;-69
2021/12/20 01:15:35;;;;;;;31.98;5.55;;;3.70;99.90;;;;;;5053255;28;20067;-69
2021/12/20 01:18:02;;;;;;;25.70;5.45;;;3.70;99.90;;;;;;5053865;28;20056;-70
2021/12/20 01:20:28;;;;;;;25.92;5.47;;;3.70;99.90;;;;;;5053414;28;20036;-69
2021/12/20 01:22:54;;;;;;;25.85;4.30;;;3.70;99.90;;;;;;5035250;28;20102;-68
2021/12/20 01:25:20;;;;;;;18.92;4.63;;;3.70;99.90;;;;;;5053106;28;20079;-70
2021/12/20 01:27:46;;;;;;;27.40;5.88;;;3.70;99.90;;;;;;5052832;28;20029;-68
2021/12/20 01:30:14;;;;;;;24.38;4.45;;;3.70;99.90;;;;;;5052683;28;20025;-69
2021/12/20 01:32:40;;;;;;;17.92;4.60;;;3.70;99.90;;;;;;5034980;28;20104;-70
2021/12/20 01:35:07;;;;;;;26.60;5.97;;;3.60;99.90;;;;;;5052687;28;20505;-70
2021/12/20 01:37:33;;;;;;;21.17;3.85;;;3.70;99.90;;;;;;5052844;28;20111;-69
2021/12/20 01:39:59;;;;;;;27.27;5.05;;;3.60;99.90;;;;;;5052975;28;20063;-70
2021/12/20 01:42:27;;;;;;;18.05;3.67;;;3.60;99.90;;;;;;5052731;28;20500;-70
2021/12/20 01:44:56;;;;;;;30.30;4.95;;;3.60;99.90;;;;;;5053457;28;20385;-70
2021/12/20 01:47:23;;;;;;;29.23;4.60;;;3.50;99.90;;;;;;5062528;28;20024;-70
2021/12/20 01:50:04;;;;;;;21.65;4.05;;;3.60;99.90;;;;;;5058305;28;20017;-70
2021/12/20 01:52:39;;;;;;;14.70;3.50;;;3.60;99.90;;;;;;5059294;28;20070;-70
2021/12/20 01:55:07;;;;;;;20.92;4.75;;;3.50;99.90;;;;;;5067930;28;20036;-70
2021/12/20 01:57:32;;;;;;;24.50;5.75;;;3.50;99.90;;;;;;5056946;28;20056;-69
2021/12/20 01:59:58;;;;;;;22.80;5.35;;;3.50;99.90;;;;;;5056538;28;20031;-69
2021/12/20 02:02:24;;;;;;;22.67;4.82;;;3.50;99.90;;;;;;5056381;28;20040;-68
2021/12/20 02:04:51;;;;;;;22.02;6.63;;;3.50;99.90;;;;;;5038706;28;20032;-69
2021/12/20 02:07:49;;;;;;;39.28;6.70;;;3.50;99.90;;;;;;5039142;28;20457;-69
2021/12/20 02:10:05;;;;;;;24.42;5.63;;;3.40;99.90;;;;;;5055001;28;20382;-69
2021/12/20 02:12:30;;;;;;;27.60;5.40;;;3.30;99.90;;;;;;5056251;28;20025;-69
2021/12/20 02:14:56;;;;;;;24.85;4.90;;;3.30;99.90;;;;;;5056576;28;20021;-69
2021/12/20 02:17:21;;;;;;;24.70;6.15;;;3.30;99.90;;;;;;5057108;28;20025;-68
2021/12/20 02:19:47;;;;;;;26.65;7.10;;;3.30;99.90;;;;;;5039474;28;20036;-67
2021/12/20 02:22:12;;;;;;;26.73;5.93;;;3.20;99.90;;;;;;5056347;28;20084;-69
2021/12/20 02:24:38;;;;;;;31.52;5.65;;;3.20;99.90;;;;;;5056420;28;20417;-69
2021/12/20 02:27:04;;;;;;;22.95;5.72;;;3.20;99.90;;;;;;5056179;28;20031;-68
2021/12/20 02:29:44;;;;;;;24.67;5.85;;;3.20;99.90;;;;;;5056424;28;20032;-69
2021/12/20 02:37:42;;;;;;;24.90;6.30;;;3.10;99.90;;;;;;5064865;28;20048;-70
2021/12/20 02:40:08;;;;;;;21.67;6.78;;;3.10;99.90;;;;;;5069791;28;20041;-69
2021/12/20 02:42:40;;;;;;;17.98;5.53;;;3.10;99.90;;;;;;5070185;28;20452;-70
2021/12/20 02:45:11;;;;;;;21.60;5.78;;;3.00;99.90;;;;;;5070207;28;20013;-69
2021/12/20 02:47:42;;;;;;;13.57;5.35;;;3.00;99.90;;;;;;5061712;28;20466;-69
2021/12/20 02:50:08;;;;;;;19.83;5.95;;;2.90;99.90;;;;;;5055958;28;20028;-69
2021/12/20 02:52:34;;;;;;;17.13;5.32;;;2.90;99.90;;;;;;5055677;28;20029;-69
2021/12/20 02:55:01;;;;;;;14.88;5.53;;;2.90;99.90;;;;;;5056877;28;20060;-69
2021/12/20 02:57:26;;;;;;;17.88;4.82;;;2.80;99.90;;;;;;5055750;28;20446;-69
2021/12/20 02:59:52;;;;;;;15.18;5.20;;;2.80;99.90;;;;;;5038484;28;20049;-68
2021/12/20 03:02:18;;;;;;;14.10;4.78;;;2.80;99.90;;;;;;5056527;28;20021;-68
2021/12/20 03:04:44;;;;;;;13.52;5.00;;;2.80;99.90;;;;;;5059154;28;20100;-70
2021/12/20 03:07:15;;;;;;;13.90;4.40;;;2.80;99.90;;;;;;5055361;28;20021;-69
2021/12/20 03:09:48;;;;;;;15.70;4.95;;;2.80;99.90;;;;;;5056262;28;20025;-69
2021/12/20 03:12:13;;;;;;;17.83;5.15;;;2.80;99.90;;;;;;5042529;28;20038;-68
2021/12/20 03:14:43;;;;;;;11.40;4.47;;;2.70;99.90;;;;;;5066624;28;20025;-69
2021/12/20 03:17:10;;;;;;;19.08;4.63;;;2.70;99.90;;;;;;5055245;28;20536;-70
2021/12/20 03:19:35;;;;;;;20.65;4.68;;;2.70;99.90;;;;;;5055192;28;20115;-69
2021/12/20 03:22:02;;;;;;;16.27;4.90;;;2.70;99.90;;;;;;5055294;28;20461;-69
2021/12/20 03:24:28;;;;;;;18.85;5.03;;;2.70;99.90;;;;;;5054785;28;20044;-70
2021/12/20 03:26:54;;;;;;;12.65;4.38;;;2.70;99.90;;;;;;5055274;28;20513;-69
2021/12/20 03:29:19;;;;;;;12.23;4.15;;;2.60;99.90;;;;;;5055214;28;20032;-68
2021/12/20 03:31:45;;;;;;;10.32;4.10;;;2.60;99.90;;;;;;5037678;28;20068;-69
2021/12/20 03:34:12;;;;;;;16.92;4.72;;;2.60;99.90;;;;;;5055418;28;20025;-69
2021/12/20 03:36:38;;;;;;;10.70;3.55;;;2.60;99.90;;;;;;5055218;28;20021;-67
2021/12/20 03:39:07;;;;;;;8.88;3.88;;;2.60;99.90;;;;;;5055356;28;20466;-69
2021/12/20 03:41:33;;;;;;;12.07;4.20;;;2.60;99.90;;;;;;5055206;28;20021;-69
2021/12/20 03:43:58;;;;;;;12.50;4.32;;;2.60;99.90;;;;;;5036645;28;20040;-67
2021/12/20 03:46:24;;;;;;;14.27;4.15;;;2.60;99.90;;;;;;5036952;28;20107;-69
2021/12/20 03:48:50;;;;;;;10.73;4.03;;;2.60;99.90;;;;;;5056357;28;20032;-70
2021/12/20 03:51:15;;;;;;;12.68;3.88;;;2.60;99.90;;;;;;5044018;28;20056;-69
2021/12/20 03:53:41;;;;;;;15.45;4.28;;;2.60;99.90;;;;;;5058171;28;20031;-69
2021/12/20 03:56:07;;;;;;;17.20;4.40;;;2.60;99.90;;;;;;5055466;28;20029;-70
2021/12/20 03:58:34;;;;;;;10.32;4.45;;;2.60;99.90;;;;;;5048567;28;20051;-68
2021/12/20 04:01:03;;;;;;;11.57;3.90;;;2.60;99.90;;;;;;5058787;28;20195;-69
2021/12/20 04:03:31;;;;;;;11.18;3.60;;;2.50;99.90;;;;;;5054258;28;20040;-68
2021/12/20 04:05:56;;;;;;;14.25;3.88;;;2.60;99.90;;;;;;5054616;28;20013;-69
2021/12/20 04:08:22;;;;;;;12.10;3.78;;;2.50;99.90;;;;;;5036091;28;20021;-69
2021/12/20 04:10:48;;;;;;;12.07;3.60;;;2.60;99.90;;;;;;5053417;28;20040;-67
2021/12/20 04:13:13;;;;;;;15.57;4.10;;;2.60;99.90;;;;;;5054125;28;20110;-69
2021/12/20 04:15:39;;;;;;;15.85;4.60;;;2.60;99.90;;;;;;5036057;28;20187;-69
2021/12/20 04:18:04;;;;;;;17.00;3.85;;;2.50;99.90;;;;;;5053983;28;20021;-70
2021/12/20 04:20:31;;;;;;;21.77;4.57;;;2.50;99.90;;;;;;5035773;28;20463;-68
2021/12/20 04:22:56;;;;;;;9.02;4.07;;;2.50;99.90;;;;;;5054266;28;20516;-69
2021/12/20 04:25:22;;;;;;;13.65;3.78;;;2.50;99.90;;;;;;5053959;28;20017;-69
2021/12/20 04:27:48;;;;;;;14.88;3.95;;;2.50;99.90;;;;;;5035654;28;20028;-69
2021/12/20 04:30:14;;;;;;;11.50;4.28;;;2.50;99.90;;;;;;5053793;28;20434;-68
2021/12/20 04:32:42;;;;;;;14.30;4.60;;;2.50;99.90;;;;;;5059732;28;20021;-69
2021/12/20 04:35:09;;;;;;;14.18;4.18;;;2.50;99.90;;;;;;5058305;28;20025;-69
2021/12/20 04:37:35;;;;;;;11.70;3.83;;;2.60;99.90;;;;;;5054315;28;20112;-69
2021/12/20 04:40:05;;;;;;;23.80;4.63;;;2.60;99.90;;;;;;5054105;28;20121;-68
2021/12/20 04:42:31;;;;;;;18.20;4.10;;;2.60;99.90;;;;;;5053909;28;20048;-69
2021/12/20 04:44:57;;;;;;;12.68;4.28;;;2.60;99.90;;;;;;5053929;28;20061;-69
2021/12/20 04:47:22;;;;;;;17.20;4.28;;;2.50;99.90;;;;;;5053396;28;20079;-69
2021/12/20 04:49:48;;;;;;;10.07;3.83;;;2.50;99.90;;;;;;5056617;28;20112;-69
2021/12/20 04:52:13;;;;;;;12.35;3.78;;;2.60;99.90;;;;;;5067001;28;20032;-69
2021/12/20 04:54:39;;;;;;;17.88;4.13;;;2.60;99.90;;;;;;5050296;28;20087;-70
2021/12/20 04:57:04;;;;;;;21.88;4.10;;;2.60;99.90;;;;;;5069815;28;20041;-70
2021/12/20 04:59:30;;;;;;;19.20;3.75;;;2.60;99.90;;;;;;5058600;28;20068;-69
2021/12/20 05:01:56;;;;;;;11.52;4.40;;;2.70;99.90;;;;;;5055547;28;20037;-70
2021/12/20 05:04:21;;;;;;;16.20;3.63;;;2.70;99.90;;;;;;5055273;28;20059;-69
2021/12/20 05:06:49;;;;;;;19.25;3.85;;;2.80;99.90;;;;;;5053655;28;20025;-69
2021/12/20 05:09:14;;;;;;;22.58;3.88;;;2.80;99.90;;;;;;5054103;28;20449;-69
2021/12/20 05:11:47;;;;;;;13.85;4.82;;;2.80;99.90;;;;;;5053796;28;20067;-69
2021/12/20 05:14:13;;;;;;;18.35;4.43;;;2.80;99.90;;;;;;5053889;28;20467;-69
2021/12/20 05:16:38;;;;;;;20.45;4.43;;;2.90;99.90;;;;;;5053986;28;20029;-69
2021/12/20 05:19:04;;;;;;;15.15;4.82;;;2.90;99.90;;;;;;5052912;28;20029;-69
2021/12/20 05:21:30;;;;;;;17.55;3.97;;;3.00;99.90;;;;;;5054959;28;20392;-69
2021/12/20 05:23:56;;;;;;;14.57;3.97;;;3.00;99.90;;;;;;5056866;28;20474;-69
2021/12/20 05:26:21;;;;;;;11.23;4.18;;;3.00;99.90;;;;;;5057076;28;20032;-69
2021/12/20 05:28:47;;;;;;;15.68;3.45;;;2.90;99.90;;;;;;5057139;28;20021;-69
2021/12/20 05:31:13;;;;;;;16.35;4.00;;;2.90;99.90;;;;;;5038766;28;20037;-69
2021/12/20 05:33:38;;;;;;;15.80;3.45;;;2.90;99.90;;;;;;5056603;28;20025;-70
2021/12/20 05:36:04;;;;;;;16.05;4.07;;;3.00;99.90;;;;;;5056851;28;20021;-69
2021/12/20 05:38:30;;;;;;;9.57;4.00;;;3.00;99.90;;;;;;5056933;28;20128;-70
2021/12/20 05:40:55;;;;;;;25.00;4.53;;;3.00;99.90;;;;;;5056761;28;20055;-69
2021/12/20 05:43:21;;;;;;;19.00;4.53;;;3.00;99.90;;;;;;5056879;28;20029;-69
2021/12/20 05:45:47;;;;;;;21.00;4.30;;;3.00;99.90;;;;;;5057534;28;20470;-69
2021/12/20 05:48:12;;;;;;;18.30;4.65;;;3.00;99.90;;;;;;5039488;28;20072;-69
2021/12/20 05:50:38;;;;;;;14.38;3.70;;;3.00;99.90;;;;;;5057951;28;20029;-68
2021/12/20 05:53:03;;;;;;;12.68;3.22;;;3.10;99.90;;;;;;5064231;28;20049;-70
2021/12/20 05:55:29;;;;;;;28.63;5.10;;;3.10;99.90;;;;;;5047594;28;20032;-70
2021/12/20 05:57:55;;;;;;;19.90;3.90;;;3.10;99.90;;;;;;5060324;28;20032;-69
2021/12/20 06:00:21;;;;;;;21.05;4.38;;;3.00;99.90;;;;;;5065085;28;20065;-71
2021/12/20 06:02:49;;;;;;;20.35;4.60;;;3.00;99.90;;;;;;5052483;28;20025;-70
2021/12/20 06:05:15;;;;;;;20.98;4.45;;;3.00;99.90;;;;;;5060218;28;20090;-70
2021/12/20 06:07:42;;;;;;;14.90;3.88;;;3.00;99.90;;;;;;5056207;28;20037;-70
2021/12/20 06:10:11;;;;;;;22.83;4.03;;;3.00;99.90;;;;;;5056156;28;20021;-70
2021/12/20 06:12:39;;;;;;;18.10;4.85;;;3.00;99.90;;;;;;5055959;28;20062;-69
2021/12/20 06:15:05;;;;;;;18.52;4.00;;;3.00;99.90;;;;;;5038163;28;20025;-69
2021/12/20 06:17:30;;;;;;;14.23;3.40;;;3.00;99.90;;;;;;5056329;28;20401;-70
2021/12/20 06:19:56;;;;;;;14.05;4.50;;;3.00;99.90;;;;;;5056328;28;20032;-71
2021/12/20 06:22:22;;;;;;;13.75;4.53;;;3.00;99.90;;;;;;5057227;28;20025;-70
2021/12/20 06:24:47;;;;;;;14.05;5.07;;;2.90;99.90;;;;;;5057708;28;20025;-69
2021/12/20 06:27:13;;;;;;;19.23;6.32;;;2.90;99.90;;;;;;5056411;28;20021;-70
2021/12/20 06:29:38;;;;;;;10.90;5.25;;;2.90;99.90;;;;;;5056448;28;20025;-70
2021/12/20 06:32:04;;;;;;;10.38;5.32;;;2.90;99.90;;;;;;5056223;28;20025;-70
2021/12/20 06:34:30;;;;;;;17.00;5.05;;;2.80;99.90;;;;;;5055296;28;20108;-70
2021/12/20 06:36:56;;;;;;;17.65;5.95;;;2.80;99.90;;;;;;5055716;28;20316;-71
2021/12/20 06:39:23;;;;;;;16.67;6.38;;;2.80;99.90;;;;;;5055546;28;20032;-71
2021/12/20 06:41:49;;;;;;;19.02;5.40;;;2.70;99.90;;;;;;5037618;28;20040;-71
2021/12/20 06:44:15;;;;;;;22.90;6.22;;;2.70;99.90;;;;;;5037065;28;20041;-70
2021/12/20 06:46:41;;;;;;;21.73;5.53;;;2.70;99.90;;;;;;5055805;28;20025;-70
2021/12/20 06:49:09;;;;;;;16.77;5.82;;;2.70;99.90;;;;;;5055324;28;20021;-70
2021/12/20 06:51:41;;;;;;;19.05;5.80;;;2.70;99.90;;;;;;5055361;28;20119;-71
2021/12/20 06:54:08;;;;;;;21.98;6.35;;;2.70;99.90;;;;;;5055616;28;20036;-70
2021/12/20 06:56:33;;;;;;;20.60;6.32;;;2.70;99.90;;;;;;5055457;28;20017;-70
2021/12/20 06:58:59;;;;;;;14.35;5.70;;;2.70;99.90;;;;;;5055336;28;20475;-70
2021/12/20 07:01:25;;;;;;;15.40;5.70;;;2.70;99.90;;;;;;5055767;28;20025;-71
2021/12/20 07:03:50;;;;;;;15.15;6.55;;;2.60;99.90;;;;;;5056147;28;20035;-69
2021/12/20 07:06:16;;;;;;;15.68;6.03;;;2.60;99.90;;;;;;5060039;28;20028;-70
2021/12/20 07:08:42;;;;;;;17.67;6.47;;;2.60;99.90;;;;;;5063796;28;20025;-69
2021/12/20 07:11:08;;;;;;;16.17;5.90;;;2.50;99.90;;;;;;5062830;28;20146;-72
2021/12/20 07:13:34;;;;;;;10.98;6.13;;;2.50;99.90;;;;;;5066725;28;20017;-70
2021/12/20 07:16:00;;;;;;;15.20;6.38;;;2.40;99.90;;;;;;5068713;28;20031;-69
2021/12/20 07:18:25;;;;;;;16.73;6.53;;;2.30;99.90;;;;;;5055315;28;20029;-69
2021/12/20 07:20:51;;;;;;;18.05;6.55;;;2.30;99.90;;;;;;5054922;28;20458;-68
2021/12/20 07:23:17;;;;;;;17.98;6.38;;;2.20;99.90;;;;;;5055775;28;20024;-69
2021/12/20 07:25:42;;;;;;;15.40;6.95;;;2.20;99.90;;;;;;5036936;28;20017;-67
2021/12/20 07:28:08;;;;;;;17.33;7.88;;;2.30;99.90;;;;;;5054899;28;20021;-68
2021/12/20 07:30:34;;;;;;;16.67;7.22;;;2.30;99.90;;;;;;5054321;28;20036;-67
2021/12/20 07:33:01;;;;;;;25.70;8.35;;;2.20;99.90;;;;;;5054081;28;20398;-67
2021/12/20 07:35:27;;;;;;;17.63;7.38;;;2.20;99.90;;;;;;5054730;28;20101;-68
2021/12/20 07:37:56;;;;;;;18.13;7.35;;;2.20;99.90;;;;;;5054226;28;20548;-68
2021/12/20 07:40:21;;;;;;;15.73;8.38;;;2.10;99.90;;;;;;5054433;28;20021;-68
2021/12/20 07:42:47;;;;;;;21.67;7.70;;;2.10;99.90;;;;;;5054286;28;20025;-68
2021/12/20 07:45:13;;;;;;;15.88;7.20;;;2.00;99.90;;;;;;5054889;28;20112;-68
2021/12/20 07:47:38;;;;;;;19.60;8.35;;;2.00;99.90;;;;;;5057919;28;20017;-69
2021/12/20 07:50:05;;;;;;;17.67;8.20;;;2.00;99.90;;;;;;5057517;28;20078;-70
2021/12/20 07:52:32;;;;;;;22.33;8.38;;;2.00;99.90;;;;;;5055322;28;20029;-69
2021/12/20 07:54:59;;;;;;;22.50;8.35;;;2.00;99.90;;;;;;5056376;28;20082;-69
2021/12/20 07:57:25;;;;;;;15.25;7.55;;;1.90;99.90;;;;;;5055683;28;20103;-69
2021/12/20 07:59:50;;;;;;;17.58;8.05;;;1.90;99.90;;;;;;5055139;28;20474;-68
2021/12/20 08:02:16;;;;;;;18.13;7.32;;;1.90;99.90;;;;;;5054878;28;20394;-69
2021/12/20 08:04:47;;;;;;;18.65;8.43;;;1.90;99.90;;;;;;5054880;28;20021;-68
2021/12/20 08:07:13;;;;;;;21.70;7.97;;;1.90;99.90;;;;;;5054923;28;20021;-71
2021/12/20 08:09:39;;;;;;;12.95;7.60;;;1.90;99.90;;;;;;5055667;28;20343;-69
2021/12/20 08:12:05;;;;;;;16.40;7.72;;;1.90;99.90;;;;;;5036392;28;20033;-69
2021/12/20 08:14:31;;;;;;;14.85;6.93;;;1.80;99.90;;;;;;5054386;28;20025;-69
2021/12/20 08:16:57;;;;;;;13.48;7.50;;;1.80;99.90;;;;;;5054748;28;20024;-69
2021/12/20 08:19:22;;;;;;;22.20;7.68;;;1.80;99.90;;;;;;5054504;28;20174;-70
2021/12/20 08:21:48;;;;;;;20.10;7.88;;;1.80;99.90;;;;;;5037048;28;20374;-69
2021/12/20 08:24:13;;;;;;;14.30;7.30;;;1.80;99.90;;;;;;5054361;28;20032;-69
2021/12/20 08:26:38;;;;;;;15.32;7.75;;;1.80;99.90;;;;;;5054706;28;20021;-70
2021/12/20 08:29:04;;;;;;;24.83;8.27;;;1.80;99.90;;;;;;5054661;28;20029;-69
2021/12/20 08:31:30;;;;;;;23.58;8.70;;;1.80;99.90;;;;;;5054282;28;20054;-70
2021/12/20 08:33:55;;;;;;;23.05;9.15;;;1.80;99.90;;;;;;5056566;28;20482;-70
2021/12/20 08:36:21;;;;;;;18.38;8.85;;;1.90;99.90;;;;;;5060422;28;20028;-69
2021/12/20 08:38:46;;;;;;;18.40;8.63;;;1.90;99.90;;;;;;5055068;28;20061;-69
2021/12/20 08:41:12;;;;;;;20.73;8.68;;;1.90;99.90;;;;;;5054078;28;20020;-69
2021/12/20 08:43:39;;;;;;;19.98;9.07;;;1.90;99.90;;;;;;5053414;28;20048;-69
2021/12/20 08:46:05;;;;;;;23.67;9.05;;;2.00;99.90;;;;;;5035863;28;20458;-70
2021/12/20 08:48:32;;;;;;;16.30;7.53;;;2.00;99.90;;;;;;5036009;28;20071;-70
2021/12/20 08:50:59;;;;;;;18.48;8.77;;;2.10;99.90;;;;;;5036659;28;20021;-70
2021/12/20 08:53:24;;;;;;;19.55;8.00;;;2.10;99.90;;;;;;5054343;28;20017;-70
2021/12/20 08:55:50;;;;;;;19.92;8.77;;;2.10;99.90;;;;;;5053549;28;20021;-69
2021/12/20 08:58:15;;;;;;;23.85;8.90;;;2.20;99.90;;;;;;5053510;28;20028;-70
2021/12/20 09:00:41;;;;;;;21.27;9.13;;;2.20;99.90;;;;;;5035954;28;20495;-69
2021/12/20 09:03:07;;;;;;;18.20;8.60;;;2.30;99.90;;;;;;5053676;28;20052;-70
2021/12/20 09:05:34;;;;;;;16.35;9.07;;;2.30;99.90;;;;;;5054425;28;20066;-70
2021/12/20 09:08:01;;;;;;;16.08;8.00;;;2.40;99.90;;;;;;5055246;28;20048;-70
2021/12/20 09:10:28;;;;;;;26.67;8.65;;;2.40;99.90;;;;;;5055645;28;20045;-70
2021/12/20 09:12:54;;;;;;;23.05;8.75;;;2.50;99.90;;;;;;5058833;28;20017;-69
2021/12/20 09:15:19;;;;;;;23.50;7.80;;;2.60;99.90;;;;;;5059467;28;20055;-71
2021/12/20 09:17:52;;;;;;;15.57;7.63;;;2.60;99.90;;;;;;5061332;28;20033;-71
2021/12/20 09:20:21;;;;;;;22.48;6.63;;;2.70;99.90;;;;;;5061372;28;20029;-70
2021/12/20 09:22:52;;;;;;;18.92;6.97;;;2.90;99.90;;;;;;5062172;28;20036;-69
2021/12/20 09:25:23;;;;;;;21.50;7.60;;;2.90;99.90;;;;;;5061377;28;20024;-67
2021/12/20 09:27:49;;;;;;;19.35;7.32;;;3.00;99.90;;;;;;5061445;28;20089;-69
2021/12/20 09:30:16;;;;;;;17.42;7.32;;;3.20;99.90;;;;;;5058729;28;20025;-68
2021/12/20 09:32:42;;;;;;;12.70;6.80;;;3.20;99.90;;;;;;5059578;28;20113;-69
2021/12/20 09:35:08;;;;;;;20.45;9.90;;;3.30;99.90;;;;;;5041042;28;20037;-69
2021/12/20 09:37:33;;;;;;;18.35;8.73;;;3.40;99.90;;;;;;5063978;28;20041;-69
2021/12/20 09:40:00;;;;;;;21.10;8.98;;;3.50;99.90;;;;;;5064727;28;20043;-69
2021/12/20 09:42:26;;;;;;;18.17;9.65;;;3.50;99.90;;;;;;5035323;28;20107;-69
2021/12/20 09:44:53;;;;;;;21.50;9.40;;;3.60;99.90;;;;;;5035638;28;20099;-69
2021/12/20 09:47:19;;;;;;;19.27;10.18;;;3.60;99.90;;;;;;5057063;28;20036;-68
2021/12/20 09:49:45;;;;;;;21.38;10.10;;;3.60;99.90;;;;;;5056182;28;20021;-69
2021/12/20 09:52:11;;;;;;;17.48;9.88;;;3.70;99.90;;;;;;5054693;28;20048;-70
2021/12/20 09:54:39;;;;;;;22.23;9.88;;;3.60;99.90;;;;;;5056109;28;20025;-69
2021/12/20 09:57:08;;;;;;;20.50;9.68;;;3.70;99.90;;;;;;5041820;28;20029;-68
2021/12/20 09:59:36;;;;;;;21.92;9.05;;;3.70;99.90;;;;;;5053728;28;20025;-69
2021/12/20 10:02:09;;;;;;;19.88;8.73;;;3.80;99.90;;;;;;5052997;28;20069;-69
2021/12/20 10:04:35;;;;;;;19.30;8.95;;;3.90;99.90;;;;;;5053570;28;20385;-69
2021/12/20 10:07:02;;;;;;;20.00;8.73;;;3.90;99.90;;;;;;5054251;28;20033;-69
2021/12/20 10:09:32;;;;;;;18.77;8.40;;;4.00;99.90;;;;;;5056942;28;20021;-68
2021/12/20 10:12:15;;;;;;;21.55;7.18;;;4.00;99.90;;;;;;5039642;28;20021;-72
2021/12/20 10:15:04;;;;;;;15.68;7.10;;;4.10;99.90;;;;;;5057748;28;20025;-69
2021/12/20 10:17:53;;;;;;;19.63;7.57;;;4.20;99.90;;;;;;5057016;28;20100;-69
2021/12/20 10:20:28;;;;;;;21.15;7.03;;;4.20;99.90;;;;;;5027032;28;20040;-69
2021/12/20 10:23:08;;;;;;;16.25;8.23;;;4.20;99.90;;;;;;5057988;28;20075;-69
2021/12/20 10:25:35;;;;;;;19.45;8.57;;;4.30;99.90;;;;;;5059493;28;20021;-69
2021/12/20 10:28:11;;;;;;;17.95;8.02;;;4.40;99.90;;;;;;5058193;28;20025;-69
2021/12/20 10:30:52;;;;;;;20.10;9.20;;;4.40;99.90;;;;;;5058353;28;20103;-70
2021/12/20 10:33:20;;;;;;;19.05;8.27;;;4.50;99.90;;;;;;5058751;28;20025;-69
2021/12/20 10:35:54;;;;;;;25.63;9.15;;;4.50;99.90;;;;;;5059242;28;20041;-69
2021/12/20 10:38:38;;;;;;;14.75;8.07;;;4.50;99.90;;;;;;5041279;28;20044;-69
2021/12/20 10:41:29;;;;;;;16.35;7.70;;;4.50;99.90;;;;;;5058652;28;20438;-69
2021/12/20 10:44:00;;;;;;;18.40;8.13;;;4.60;99.90;;;;;;5038895;28;20064;-70
2021/12/20 10:46:28;;;;;;;17.73;7.53;;;4.60;99.90;;;;;;5057397;28;20028;-69
2021/12/20 10:49:05;;;;;;;16.23;7.72;;;4.60;99.90;;;;;;5057501;28;20013;-69
2021/12/20 10:51:37;;;;;;;19.10;8.43;;;4.60;99.90;;;;;;5056897;28;20027;-70
2021/12/20 10:54:10;;;;;;;21.80;8.05;;;4.70;99.90;;;;;;5058035;28;20104;-69
2021/12/20 10:56:39;;;;;;;19.17;8.10;;;4.70;99.90;;;;;;5058374;28;20024;-69
2021/12/20 10:59:13;;;;;;;19.13;7.85;;;4.70;99.90;;;;;;5059039;28;20025;-70
2021/12/20 11:04:27;;;;;;;18.35;6.80;;;4.70;99.90;;;;;;5057439;28;20055;-70
2021/12/20 11:09:39;;;;;;;22.35;7.10;;;4.80;99.90;;;;;;5056780;28;20079;-69
2021/12/20 11:12:11;;;;;;;18.10;7.47;;;4.90;99.90;;;;;;5038662;28;20025;-68
2021/12/20 11:14:42;;;;;;;18.38;6.65;;;5.00;99.90;;;;;;5056342;28;20108;-69
2021/12/20 11:17:14;;;;;;;13.65;6.25;;;5.10;99.90;;;;;;5062258;28;20526;-71
2021/12/20 11:19:44;;;;;;;18.83;6.82;;;5.10;99.90;;;;;;5058070;28;20201;-73
2021/12/20 11:22:14;;;;;;;20.67;6.67;;;5.20;99.90;;;;;;5039081;28;20115;-69
2021/12/20 11:24:53;;;;;;;18.63;6.78;;;5.20;99.90;;;;;;5056774;28;20032;-70
2021/12/20 11:27:32;;;;;;;14.00;6.07;;;5.20;99.90;;;;;;5056625;28;20029;-70
2021/12/20 11:30:05;;;;;;;22.10;7.18;;;5.20;99.90;;;;;;5059505;28;20021;-69
2021/12/20 11:32:30;;;;;;;17.67;6.88;;;5.10;99.90;;;;;;5057497;28;20029;-71
2021/12/20 11:34:57;;;;;;;19.83;6.25;;;5.10;99.90;;;;;;5040836;28;20061;-69
2021/12/20 11:37:26;;;;;;;20.13;5.85;;;5.10;99.90;;;;;;5061654;28;20029;-69
2021/12/20 11:39:54;;;;;;;16.40;5.95;;;5.10;99.90;;;;;;5064869;28;20037;-70
2021/12/20 11:42:20;;;;;;;14.85;6.97;;;5.10;99.90;;;;;;5065525;28;20033;-70
2021/12/20 11:44:47;;;;;;;15.23;6.38;;;5.10;99.90;;;;;;5063180;28;20493;-69
2021/12/20 11:47:54;;;;;;;15.95;5.88;;;5.20;99.90;;;;;;5058541;28;20045;-69
2021/12/20 11:50:29;;;;;;;15.55;6.60;;;5.20;99.90;;;;;;5057298;28;20020;-70
2021/12/20 11:53:08;;;;;;;15.75;5.18;;;5.20;99.90;;;;;;5039200;28;20126;-69
2021/12/20 11:55:34;;;;;;;15.70;5.97;;;5.30;99.90;;;;;;5057495;28;20028;-69
2021/12/20 11:58:02;;;;;;;23.77;6.15;;;5.30;99.90;;;;;;5057837;28;20088;-69
2021/12/20 12:00:33;;;;;;;16.25;5.18;;;5.30;99.90;;;;;;5056701;28;20474;-69
2021/12/20 12:03:06;;;;;;;14.27;5.40;;;5.40;99.90;;;;;;5056023;28;20029;-70
2021/12/20 12:05:51;;;;;;;10.20;5.05;;;5.40;99.90;;;;;;5038735;28;20132;-70
2021/12/20 12:08:34;;;;;;;13.68;5.07;;;5.40;99.90;;;;;;5038831;28;20032;-70
2021/12/20 12:11:09;;;;;;;17.50;5.13;;;5.40;99.90;;;;;;5056776;28;20079;-69
2021/12/20 12:16:28;;;;;;;17.15;4.68;;;5.40;99.90;;;;;;5044775;28;20025;-70
2021/12/20 12:18:55;;;;;;;14.02;5.20;;;5.50;99.90;;;;;;5057166;28;20498;-69
2021/12/20 12:21:33;;;;;;;9.82;4.55;;;5.50;99.90;;;;;;5056369;28;20124;-69
2021/12/20 12:24:10;;;;;;;11.52;5.82;;;5.60;99.90;;;;;;5039066;28;20021;-69
2021/12/20 12:26:46;;;;;;;13.75;4.38;;;5.70;99.90;;;;;;5057603;28;20025;-70
2021/12/20 12:29:23;;;;;;;16.10;4.65;;;5.70;99.90;;;;;;5056970;28;20095;-69
2021/12/20 12:31:53;;;;;;;16.05;4.07;;;5.80;99.90;;;;;;5036883;28;20025;-69
2021/12/20 12:34:19;;;;;;;11.43;3.90;;;5.80;99.90;;;;;;5055309;28;20021;-68
2021/12/20 12:36:45;;;;;;;12.07;3.22;;;5.80;99.90;;;;;;5056418;28;20032;-70
2021/12/20 12:39:24;;;;;;;10.57;3.95;;;5.80;99.90;;;;;;5059564;28;20021;-69
2021/12/20 12:41:59;;;;;;;14.00;4.65;;;5.80;99.90;;;;;;5054803;28;20094;-70
2021/12/20 12:44:28;;;;;;;13.43;4.38;;;5.90;99.90;;;;;;5036823;28;20029;-69
2021/12/20 12:47:03;;;;;;;12.40;4.03;;;5.90;99.90;;;;;;5037380;28;20031;-69
2021/12/20 12:49:33;;;;;;;14.07;3.22;;;6.00;99.90;;;;;;5056031;28;20017;-69
2021/12/20 12:52:04;;;;;;;8.20;2.97;;;6.00;99.90;;;;;;5055196;28;20450;-69
2021/12/20 12:54:32;;;;;;;5.45;2.20;;;6.10;99.90;;;;;;5058147;28;20029;-70
2021/12/20 12:57:07;;;;;;;9.93;2.25;;;6.10;99.90;;;;;;5057608;28;20105;-69
2021/12/20 12:59:33;;;;;;;6.10;2.20;;;6.00;99.90;;;;;;5036604;28;20020;-69
2021/12/20 13:02:08;;;;;;;9.18;2.42;;;6.00;99.90;;;;;;5055732;28;20032;-69
2021/12/20 13:04:44;;;;;;;7.80;2.50;;;6.00;99.90;;;;;;5056077;28;20025;-70
2021/12/20 13:07:11;;;;;;;9.38;2.83;;;6.00;99.90;;;;;;5039810;28;20328;-68
2021/12/20 13:09:43;;;;;;;14.50;2.58;;;6.10;99.90;;;;;;5056283;28;20013;-70